createdAt,value
2022-09-28T00:00:07.046Z,77.87
2022-09-28T00:01:07.046Z,77.86
2022-09-28T00:02:07.183Z,77.72
2022-09-28T00:03:07.143Z,77.85
2022-09-28T00:04:07.063Z,78.06
2022-09-28T00:05:07.134Z,78.19
2022-09-28T00:06:07.069Z,78.71
2022-09-28T00:07:07.079Z,78.61
2022-09-28T00:08:07.074Z,78.27
2022-09-28T00:09:07.056Z,78.17
2022-09-28T00:10:07.066Z,77.9
2022-09-28T00:11:07.057Z,78
2022-09-28T00:12:07.063Z,78.12
2022-09-28T00:13:07.064Z,78.06
2022-09-28T00:14:07.060Z,78.23
2022-09-28T00:15:07.070Z,77.93
2022-09-28T00:16:07.182Z,77.56
2022-09-28T00:17:07.064Z,77.56
2022-09-28T00:18:07.055Z,77.9
2022-09-28T00:19:07.059Z,77.9
2022-09-28T00:20:07.060Z,78
2022-09-28T00:21:07.061Z,78.07
2022-09-28T00:22:07.076Z,78.47
2022-09-28T00:23:07.067Z,78.39
2022-09-28T00:24:07.063Z,78.44
2022-09-28T00:25:07.060Z,78.37
2022-09-28T00:26:07.051Z,78.39
2022-09-28T00:27:07.067Z,78.7
2022-09-28T00:28:07.064Z,78.89
2022-09-28T00:29:07.057Z,78.77
2022-09-28T00:30:07.040Z,78.76
2022-09-28T00:31:07.105Z,78.87
2022-09-28T00:32:07.063Z,79.16
2022-09-28T00:33:07.146Z,79.44
2022-09-28T00:34:07.077Z,79.74
2022-09-28T00:35:07.041Z,79.69
2022-09-28T00:36:07.048Z,79.57
2022-09-28T00:37:07.061Z,79.5
2022-09-28T00:38:07.057Z,79.6
2022-09-28T00:39:07.050Z,79.35
2022-09-28T00:40:07.045Z,79.23
2022-09-28T00:41:07.045Z,79.24
2022-09-28T00:42:07.055Z,79.73
2022-09-28T00:43:07.098Z,80.5
2022-09-28T00:44:07.041Z,79.62
2022-09-28T00:45:07.050Z,79.47
2022-09-28T00:46:07.166Z,79.42
2022-09-28T00:47:07.059Z,79.23
2022-09-28T00:48:07.051Z,79.14
2022-09-28T00:49:07.054Z,78.97
2022-09-28T00:50:07.060Z,79.1
2022-09-28T00:51:07.068Z,80.44
2022-09-28T00:52:07.074Z,79.72
2022-09-28T00:53:07.067Z,79.72
2022-09-28T00:54:07.064Z,80.02
2022-09-28T00:55:07.060Z,79.57
2022-09-28T00:56:07.062Z,79.27
2022-09-28T00:57:07.062Z,79.17
2022-09-28T00:58:07.070Z,79.05
2022-09-28T00:59:07.056Z,78.97
2022-09-28T01:00:07.051Z,78.8
2022-09-28T01:01:07.121Z,78.94
2022-09-28T01:02:07.139Z,78.85
2022-09-28T01:03:07.068Z,78.97
2022-09-28T01:04:07.055Z,79.29
2022-09-28T01:05:07.054Z,79.44
2022-09-28T01:06:07.120Z,79.35
2022-09-28T01:07:07.081Z,79.55
2022-09-28T01:08:07.055Z,79.62
2022-09-28T01:09:07.063Z,79.66
2022-09-28T01:10:07.057Z,79.63
2022-09-28T01:11:07.062Z,79.6
2022-09-28T01:12:07.062Z,79.51
2022-09-28T01:13:07.068Z,79.54
2022-09-28T01:14:07.061Z,79.51
2022-09-28T01:15:07.052Z,78.93
2022-09-28T01:16:07.133Z,78.78
2022-09-28T01:17:07.060Z,79.2
2022-09-28T01:18:07.063Z,79.17
2022-09-28T01:19:07.052Z,79.13
2022-09-28T01:20:07.192Z,79.46
2022-09-28T01:21:07.056Z,79.46
2022-09-28T01:22:07.079Z,79.4
2022-09-28T01:23:07.069Z,79.48
2022-09-28T01:24:07.065Z,79.43
2022-09-28T01:25:07.061Z,79.86
2022-09-28T01:26:07.057Z,79.89
2022-09-28T01:27:07.063Z,80.17
2022-09-28T01:28:07.069Z,79.96
2022-09-28T01:29:07.051Z,80.2
2022-09-28T01:30:07.039Z,80.1
2022-09-28T01:31:07.131Z,80.07
2022-09-28T01:32:07.061Z,79.86
2022-09-28T01:33:07.096Z,79.86
2022-09-28T01:34:07.079Z,79.28
2022-09-28T01:35:07.059Z,79.28
2022-09-28T01:36:07.072Z,78.87
2022-09-28T01:37:07.086Z,78.87
2022-09-28T01:38:07.079Z,78.89
2022-09-28T01:39:07.055Z,78.83
2022-09-28T01:40:07.054Z,78.44
2022-09-28T01:41:07.051Z,78.15
2022-09-28T01:42:07.057Z,78.18
2022-09-28T01:43:07.067Z,78.31
2022-09-28T01:44:07.049Z,78.66
2022-09-28T01:45:07.039Z,78.81
2022-09-28T01:46:07.208Z,78.81
2022-09-28T01:47:07.051Z,78.63
2022-09-28T01:48:07.050Z,78.7
2022-09-28T01:49:07.046Z,78.96
2022-09-28T01:50:07.046Z,78.79
2022-09-28T01:51:07.047Z,78.8
2022-09-28T01:52:07.069Z,78.9
2022-09-28T01:53:07.055Z,78.95
2022-09-28T01:54:07.061Z,78.82
2022-09-28T01:55:07.057Z,78.78
2022-09-28T01:56:07.057Z,78.68
2022-09-28T01:57:07.063Z,78.77
2022-09-28T01:58:07.076Z,78.44
2022-09-28T01:59:07.063Z,78.54
2022-09-28T02:00:07.036Z,78.88
2022-09-28T02:01:07.141Z,79.55
2022-09-28T02:02:07.162Z,79.85
2022-09-28T02:03:07.063Z,80.01
2022-09-28T02:04:07.065Z,79.93
2022-09-28T02:05:07.054Z,79.67
2022-09-28T02:06:07.059Z,79.27
2022-09-28T02:07:07.075Z,79.22
2022-09-28T02:08:07.069Z,79.69
2022-09-28T02:09:07.061Z,79.64
2022-09-28T02:10:07.059Z,79.27
2022-09-28T02:11:07.052Z,79.31
2022-09-28T02:12:07.058Z,79.37
2022-09-28T02:13:07.062Z,79.56
2022-09-28T02:14:07.061Z,79.83
2022-09-28T02:15:07.052Z,79.94
2022-09-28T02:16:07.099Z,80.15
2022-09-28T02:17:07.052Z,80.51
2022-09-28T02:18:07.067Z,80.48
2022-09-28T02:19:07.049Z,80.32
2022-09-28T02:20:07.063Z,80.43
2022-09-28T02:21:07.109Z,80.52
2022-09-28T02:22:07.070Z,80.46
2022-09-28T02:23:07.055Z,80.43
2022-09-28T02:24:07.055Z,80.4
2022-09-28T02:25:07.060Z,80.3
2022-09-28T02:26:07.057Z,80.75
2022-09-28T02:27:07.056Z,80.94
2022-09-28T02:28:07.062Z,80.77
2022-09-28T02:29:07.064Z,80.76
2022-09-28T02:30:07.048Z,80.86
2022-09-28T02:31:07.147Z,80.9
2022-09-28T02:32:07.062Z,80.91
2022-09-28T02:33:07.059Z,81.15
2022-09-28T02:34:07.051Z,81.06
2022-09-28T02:35:07.051Z,81.28
2022-09-28T02:36:07.054Z,81.76
2022-09-28T02:37:07.073Z,82.1
2022-09-28T02:38:07.064Z,82.14
2022-09-28T02:39:07.054Z,81.78
2022-09-28T02:40:07.059Z,81.65
2022-09-28T02:41:07.044Z,81.59
2022-09-28T02:42:07.059Z,81.64
2022-09-28T02:43:07.059Z,81.64
2022-09-28T02:44:07.044Z,81.45
2022-09-28T02:45:07.037Z,81.27
2022-09-28T02:46:07.097Z,81.36
2022-09-28T02:47:07.040Z,81.34
2022-09-28T02:48:07.052Z,81.35
2022-09-28T02:49:20.813Z,81.41
2022-09-28T02:50:07.036Z,81.68
2022-09-28T02:51:07.044Z,82.33
2022-09-28T02:52:07.053Z,81.9
2022-09-28T02:53:07.041Z,82.08
2022-09-28T02:54:07.039Z,81.84
2022-09-28T02:55:07.056Z,82.15
2022-09-28T02:56:07.052Z,81.94
2022-09-28T02:57:07.036Z,82.06
2022-09-28T02:58:07.058Z,81.83
2022-09-28T02:59:07.055Z,82.05
2022-09-28T03:00:07.040Z,81.86
2022-09-28T03:01:07.094Z,81.95
2022-09-28T03:02:07.083Z,82.11
2022-09-28T03:03:07.067Z,82.09
2022-09-28T03:04:07.043Z,82.1
2022-09-28T03:05:07.062Z,82.22
2022-09-28T03:06:07.053Z,82.38
2022-09-28T03:07:07.067Z,82.42
2022-09-28T03:08:07.072Z,82.42
2022-09-28T03:09:07.056Z,82.64
2022-09-28T03:10:07.057Z,83.06
2022-09-28T03:11:07.050Z,83
2022-09-28T03:12:07.056Z,83.05
2022-09-28T03:13:07.055Z,83.21
2022-09-28T03:14:07.053Z,83.17
2022-09-28T03:15:07.050Z,83.17
2022-09-28T03:16:07.113Z,83.22
2022-09-28T03:17:07.095Z,83.74
2022-09-28T03:18:07.059Z,83.82
2022-09-28T03:19:07.060Z,83.84
2022-09-28T03:20:07.049Z,83.76
2022-09-28T03:21:07.060Z,83.72
2022-09-28T03:22:07.065Z,83.62
2022-09-28T03:23:23.705Z,83.71
2022-09-28T03:24:07.049Z,83.82
2022-09-28T03:25:07.056Z,84.02
2022-09-28T03:26:07.059Z,84.16
2022-09-28T03:27:07.054Z,84.16
2022-09-28T03:28:07.061Z,84.21
2022-09-28T03:29:07.060Z,84.22
2022-09-28T03:30:07.045Z,83.96
2022-09-28T03:31:07.179Z,84
2022-09-28T03:32:07.059Z,84
2022-09-28T03:33:07.064Z,83.82
2022-09-28T03:34:07.061Z,83.83
2022-09-28T03:35:07.059Z,83.64
2022-09-28T03:36:07.051Z,83.53
2022-09-28T03:37:07.087Z,83.45
2022-09-28T03:38:07.061Z,83.56
2022-09-28T03:39:07.061Z,83.69
2022-09-28T03:40:07.057Z,83.7
2022-09-28T03:41:07.056Z,83.88
2022-09-28T03:42:07.053Z,84.38
2022-09-28T03:43:07.065Z,84.26
2022-09-28T03:44:07.053Z,84.42
2022-09-28T03:45:07.048Z,84.93
2022-09-28T03:46:07.121Z,84.97
2022-09-28T03:47:07.039Z,84.97
2022-09-28T03:48:07.044Z,84.6
2022-09-28T03:49:07.037Z,84.4
2022-09-28T03:50:07.040Z,84.29
2022-09-28T03:51:07.053Z,84.33
2022-09-28T03:52:07.058Z,84.82
2022-09-28T03:53:07.048Z,85.14
2022-09-28T03:54:07.037Z,85.15
2022-09-28T03:55:07.069Z,85.18
2022-09-28T03:56:07.035Z,85.29
2022-09-28T03:57:07.044Z,85.39
2022-09-28T03:58:07.056Z,85.5
2022-09-28T03:59:07.049Z,85.41
2022-09-28T04:00:07.042Z,85.45
2022-09-28T04:01:07.165Z,85.1
2022-09-28T04:02:07.119Z,84.98
2022-09-28T04:03:07.067Z,84.57
2022-09-28T04:04:07.063Z,84.57
2022-09-28T04:05:07.061Z,84.27
2022-09-28T04:06:07.051Z,84.03
2022-09-28T04:07:07.074Z,83.95
2022-09-28T04:08:07.055Z,84.06
2022-09-28T04:09:07.052Z,84.63
2022-09-28T04:10:07.048Z,84.28
2022-09-28T04:11:07.058Z,84.02
2022-09-28T04:12:07.065Z,83.72
2022-09-28T04:13:07.057Z,83.67
2022-09-28T04:14:07.051Z,84
2022-09-28T04:15:07.055Z,84.02
2022-09-28T04:16:07.157Z,84.04
2022-09-28T04:17:07.055Z,84.16
2022-09-28T04:18:07.069Z,84.13
2022-09-28T04:19:07.058Z,84
2022-09-28T04:20:07.060Z,83.92
2022-09-28T04:21:07.040Z,83.81
2022-09-28T04:22:07.076Z,83.87
2022-09-28T04:23:07.059Z,84.11
2022-09-28T04:24:07.052Z,84.23
2022-09-28T04:25:07.058Z,84.23
2022-09-28T04:26:07.059Z,84.08
2022-09-28T04:27:07.046Z,83.94
2022-09-28T04:28:07.076Z,83.58
2022-09-28T04:29:07.183Z,83.39
2022-09-28T04:30:07.052Z,83.51
2022-09-28T04:31:07.087Z,83.56
2022-09-28T04:32:07.134Z,83.33
2022-09-28T04:33:07.063Z,83.29
2022-09-28T04:34:07.060Z,84.09
2022-09-28T04:35:07.050Z,84.04
2022-09-28T04:36:07.066Z,84.02
2022-09-28T04:37:07.074Z,84.1
2022-09-28T04:38:07.052Z,83.4
2022-09-28T04:39:07.059Z,82.86
2022-09-28T04:40:07.055Z,82.96
2022-09-28T04:41:07.052Z,83.41
2022-09-28T04:42:07.052Z,83.54
2022-09-28T04:43:07.061Z,83
2022-09-28T04:44:07.055Z,82.7
2022-09-28T04:45:07.048Z,82.94
2022-09-28T04:46:07.098Z,82.71
2022-09-28T04:47:07.036Z,82.45
2022-09-28T04:48:07.063Z,82.36
2022-09-28T04:49:07.037Z,82.3
2022-09-28T04:50:07.036Z,82.67
2022-09-28T04:51:07.058Z,82.71
2022-09-28T04:52:07.058Z,82.42
2022-09-28T04:53:07.046Z,82.36
2022-09-28T04:54:07.040Z,82.63
2022-09-28T04:55:07.037Z,82.72
2022-09-28T04:56:07.136Z,82.69
2022-09-28T04:57:07.052Z,82.48
2022-09-28T04:58:07.051Z,82.65
2022-09-28T04:59:07.038Z,82.51
2022-09-28T05:00:07.051Z,82.47
2022-09-28T05:01:07.126Z,82.34
2022-09-28T05:02:07.114Z,82.3
2022-09-28T05:03:07.060Z,82.58
2022-09-28T05:04:07.043Z,82.35
2022-09-28T05:05:07.056Z,82.31
2022-09-28T05:06:07.072Z,82.49
2022-09-28T05:07:07.079Z,81.94
2022-09-28T05:08:07.064Z,81.75
2022-09-28T05:09:07.055Z,81.79
2022-09-28T05:10:07.063Z,81.74
2022-09-28T05:11:07.059Z,81.29
2022-09-28T05:12:07.047Z,81.3
2022-09-28T05:13:07.071Z,81.12
2022-09-28T05:14:07.050Z,81.11
2022-09-28T05:15:07.059Z,80.82
2022-09-28T05:16:07.299Z,80.69
2022-09-28T05:17:07.054Z,80.98
2022-09-28T05:18:07.063Z,80.98
2022-09-28T05:19:07.061Z,80.6
2022-09-28T05:20:07.048Z,80.53
2022-09-28T05:21:07.052Z,80.74
2022-09-28T05:22:07.077Z,80.4
2022-09-28T05:23:07.055Z,80.29
2022-09-28T05:24:07.052Z,80.68
2022-09-28T05:25:07.057Z,80.84
2022-09-28T05:26:07.052Z,80.34
2022-09-28T05:27:07.062Z,80.07
2022-09-28T05:28:07.059Z,79.74
2022-09-28T05:29:07.058Z,79.82
2022-09-28T05:30:07.052Z,79.35
2022-09-28T05:31:07.051Z,79.56
2022-09-28T05:32:07.146Z,79.54
2022-09-28T05:33:07.065Z,79.86
2022-09-28T05:34:07.052Z,79.72
2022-09-28T05:35:07.055Z,79.93
2022-09-28T05:36:07.066Z,79.88
2022-09-28T05:37:07.071Z,79.73
2022-09-28T05:38:07.063Z,79.54
2022-09-28T05:39:07.055Z,78.87
2022-09-28T05:40:07.059Z,78.78
2022-09-28T05:41:07.164Z,78.71
2022-09-28T05:42:07.046Z,78.79
2022-09-28T05:43:07.062Z,78.79
2022-09-28T05:44:07.055Z,78.79
2022-09-28T05:45:07.054Z,78.88
2022-09-28T05:46:07.184Z,78.51
2022-09-28T05:47:07.052Z,78.72
2022-09-28T05:48:07.058Z,78.81
2022-09-28T05:49:07.061Z,79.38
2022-09-28T05:50:07.051Z,79.21
2022-09-28T05:51:07.060Z,79.21
2022-09-28T05:52:07.072Z,79.21
2022-09-28T05:53:07.068Z,78.74
2022-09-28T05:54:07.053Z,78.38
2022-09-28T05:55:07.056Z,78.26
2022-09-28T05:56:07.055Z,78.14
2022-09-28T05:57:07.050Z,78.05
2022-09-28T05:58:07.052Z,78.4
2022-09-28T05:59:07.035Z,78.61
2022-09-28T06:00:07.154Z,78.78
2022-09-28T06:01:07.086Z,78.64
2022-09-28T06:02:07.082Z,78.91
2022-09-28T06:03:09.228Z,78.87
2022-09-28T06:04:07.042Z,78.77
2022-09-28T06:05:07.035Z,79.18
2022-09-28T06:06:07.055Z,78.71
2022-09-28T06:07:07.055Z,78.75
2022-09-28T06:08:07.050Z,78.87
2022-09-28T06:09:07.047Z,79.19
2022-09-28T06:10:07.058Z,79.03
2022-09-28T06:11:07.041Z,79.11
2022-09-28T06:12:07.036Z,78.6
2022-09-28T06:13:07.058Z,78.28
2022-09-28T06:14:07.039Z,78.37
2022-09-28T06:15:07.040Z,78.25
2022-09-28T06:16:07.049Z,78.07
2022-09-28T06:17:07.154Z,78.12
2022-09-28T06:18:07.066Z,78.56
2022-09-28T06:19:07.159Z,78.16
2022-09-28T06:20:07.058Z,77.66
2022-09-28T06:21:07.047Z,77.63
2022-09-28T06:22:07.070Z,77.64
2022-09-28T06:23:07.058Z,77.73
2022-09-28T06:24:07.054Z,77.63
2022-09-28T06:25:07.053Z,77.24
2022-09-28T06:26:07.060Z,77.32
2022-09-28T06:27:07.059Z,77.65
2022-09-28T06:28:07.058Z,77.72
2022-09-28T06:29:07.057Z,77.78
2022-09-28T06:30:07.057Z,77.95
2022-09-28T06:31:07.161Z,77.86
2022-09-28T06:32:07.057Z,77.86
2022-09-28T06:33:07.071Z,76.69
2022-09-28T06:34:07.050Z,76.69
2022-09-28T06:35:07.054Z,77.02
2022-09-28T06:36:07.047Z,76.79
2022-09-28T06:37:07.074Z,77.05
2022-09-28T06:38:07.064Z,76.85
2022-09-28T06:39:07.152Z,76.78
2022-09-28T06:40:07.059Z,76.65
2022-09-28T06:41:07.057Z,76.32
2022-09-28T06:42:07.061Z,76.53
2022-09-28T06:43:07.072Z,76.72
2022-09-28T06:44:07.057Z,76.89
2022-09-28T06:45:07.055Z,77.18
2022-09-28T06:46:07.125Z,77.52
2022-09-28T06:47:07.060Z,77.39
2022-09-28T06:48:07.075Z,77.11
2022-09-28T06:49:07.056Z,77
2022-09-28T06:50:07.038Z,77.32
2022-09-28T06:51:07.050Z,77.19
2022-09-28T06:52:07.071Z,76.69
2022-09-28T06:53:07.056Z,76.76
2022-09-28T06:54:07.054Z,77.18
2022-09-28T06:55:07.052Z,77.33
2022-09-28T06:56:07.054Z,77.41
2022-09-28T06:57:07.051Z,77.68
2022-09-28T06:58:07.058Z,77.08
2022-09-28T06:59:07.060Z,76.55
2022-09-28T07:00:07.059Z,76.81
2022-09-28T07:01:07.122Z,77.1
2022-09-28T07:02:07.161Z,76.73
2022-09-28T07:03:07.058Z,76.85
2022-09-28T07:04:07.051Z,77.43
2022-09-28T07:05:07.107Z,78.13
2022-09-28T07:06:07.038Z,78.65
2022-09-28T07:07:07.050Z,78.84
2022-09-28T07:08:07.050Z,78.59
2022-09-28T07:09:24.518Z,78.26
2022-09-28T07:10:07.059Z,78.75
2022-09-28T07:11:07.042Z,79.15
2022-09-28T07:12:07.134Z,78.91
2022-09-28T07:13:09.105Z,89.18
2022-09-28T07:14:07.078Z,78.83
2022-09-28T07:15:07.045Z,78.52
2022-09-28T07:16:07.046Z,77.82
2022-09-28T07:17:12.638Z,78.81
2022-09-28T07:18:07.274Z,79.3
2022-09-28T07:19:07.046Z,77.81
2022-09-28T07:20:15.157Z,77.56
2022-09-28T07:21:07.625Z,77.03
2022-09-28T07:22:07.173Z,76.41
2022-09-28T07:23:17.105Z,77.79
2022-09-28T07:24:07.064Z,77.64
2022-09-28T07:25:07.054Z,77.61
2022-09-28T07:26:08.769Z,77.13
2022-09-28T07:27:07.060Z,77.57
2022-09-28T07:28:07.063Z,78.05
2022-09-28T07:29:07.063Z,77.89
2022-09-28T07:30:07.036Z,77.52
2022-09-28T07:31:07.065Z,77.44
2022-09-28T07:32:07.048Z,77.65
2022-09-28T07:33:07.060Z,77.37
2022-09-28T07:34:07.484Z,77.39
2022-09-28T07:35:07.059Z,77.35
2022-09-28T07:36:07.055Z,77.35
2022-09-28T07:37:07.074Z,77.75
2022-09-28T07:38:07.056Z,77.47
2022-09-28T07:39:07.222Z,77.4
2022-09-28T07:40:07.058Z,77.02
2022-09-28T07:41:07.103Z,76.65
2022-09-28T07:42:07.054Z,76.88
2022-09-28T07:43:07.062Z,77.52
2022-09-28T07:44:07.054Z,77.58
2022-09-28T07:45:07.061Z,77.55
2022-09-28T07:46:07.104Z,76.37
2022-09-28T07:47:07.049Z,76.34
2022-09-28T07:48:07.098Z,76
2022-09-28T07:49:10.010Z,75.94
2022-09-28T07:50:07.043Z,76.34
2022-09-28T07:51:07.047Z,75.97
2022-09-28T07:52:07.074Z,75.97
2022-09-28T07:53:07.057Z,75.68
2022-09-28T07:54:07.054Z,76.22
2022-09-28T07:55:07.547Z,74.73
2022-09-28T07:56:07.055Z,74.35
2022-09-28T07:57:07.061Z,74.84
2022-09-28T07:58:07.058Z,75.01
2022-09-28T07:59:07.054Z,74.89
2022-09-28T08:00:07.060Z,74.82
2022-09-28T08:01:07.103Z,74.4
2022-09-28T08:02:07.115Z,75.33
2022-09-28T08:03:07.062Z,74.92
2022-09-28T08:04:07.059Z,74.46
2022-09-28T08:05:07.056Z,74.22
2022-09-28T08:06:07.064Z,73.94
2022-09-28T08:07:07.075Z,73.94
2022-09-28T08:08:07.368Z,73.85
2022-09-28T08:09:07.056Z,74.92
2022-09-28T08:10:07.051Z,74.08
2022-09-28T08:11:07.055Z,74.31
2022-09-28T08:12:07.052Z,74.79
2022-09-28T08:13:08.713Z,74.4
2022-09-28T08:14:07.044Z,75.58
2022-09-28T08:15:07.036Z,74.82
2022-09-28T08:16:07.067Z,74.98
2022-09-28T08:17:07.044Z,74.23
2022-09-28T08:18:07.055Z,74.34
2022-09-28T08:19:07.066Z,75.39
2022-09-28T08:20:07.052Z,75.2
2022-09-28T08:21:07.037Z,74.95
2022-09-28T08:22:07.065Z,74.94
2022-09-28T08:23:07.042Z,76.01
2022-09-28T08:24:07.045Z,75.56
2022-09-28T08:25:07.056Z,75.36
2022-09-28T08:26:07.177Z,75.39
2022-09-28T08:27:07.057Z,74.66
2022-09-28T08:28:07.046Z,75.11
2022-09-28T08:29:07.054Z,75.88
2022-09-28T08:30:07.043Z,75.94
2022-09-28T08:31:07.188Z,76.14
2022-09-28T08:32:07.085Z,76.23
2022-09-28T08:33:07.054Z,76.45
2022-09-28T08:34:07.050Z,76.84
2022-09-28T08:35:07.053Z,76.21
2022-09-28T08:36:07.045Z,75.68
2022-09-28T08:37:07.234Z,75.97
2022-09-28T08:38:07.046Z,77
2022-09-28T08:39:07.055Z,76.95
2022-09-28T08:40:07.057Z,76.8
2022-09-28T08:41:07.059Z,76.56
2022-09-28T08:42:07.054Z,75.9
2022-09-28T08:43:07.741Z,76.09
2022-09-28T08:44:07.053Z,76.34
2022-09-28T08:45:07.048Z,76.34
2022-09-28T08:46:07.136Z,75.69
2022-09-28T08:47:07.054Z,76.04
2022-09-28T08:48:07.067Z,76.04
2022-09-28T08:49:24.267Z,74.67
2022-09-28T08:50:07.061Z,74.81
2022-09-28T08:51:07.063Z,74.73
2022-09-28T08:52:07.061Z,75.25
2022-09-28T08:53:07.070Z,75.45
2022-09-28T08:54:09.600Z,76.17
2022-09-28T08:55:07.055Z,75.21
2022-09-28T08:56:07.049Z,75.43
2022-09-28T08:57:07.746Z,76.12
2022-09-28T08:58:07.056Z,76.79
2022-09-28T08:59:07.550Z,76.08
2022-09-28T09:00:10.975Z,75.01
2022-09-28T09:01:07.137Z,74.96
2022-09-28T09:02:07.105Z,75.27
2022-09-28T09:03:07.061Z,75.38
2022-09-28T09:04:07.052Z,75.15
2022-09-28T09:05:07.057Z,75.44
2022-09-28T09:06:07.062Z,75.43
2022-09-28T09:07:07.061Z,75.56
2022-09-28T09:08:07.079Z,75.23
2022-09-28T09:09:07.055Z,75.78
2022-09-28T09:10:07.044Z,75.56
2022-09-28T09:11:07.143Z,76.31
2022-09-28T09:12:07.148Z,76.48
2022-09-28T09:13:07.051Z,76.03
2022-09-28T09:14:07.964Z,75.91
2022-09-28T09:15:07.080Z,75.97
2022-09-28T09:16:07.118Z,75.73
2022-09-28T09:17:07.152Z,76.09
2022-09-28T09:18:07.057Z,76.09
2022-09-28T09:19:07.498Z,76.28
2022-09-28T09:20:07.114Z,76.28
2022-09-28T09:21:07.167Z,75.45
2022-09-28T09:22:07.051Z,84.72
2022-09-28T09:23:07.060Z,76.34
2022-09-28T09:24:07.036Z,76.43
2022-09-28T09:25:07.052Z,76.27
2022-09-28T09:26:07.055Z,75.74
2022-09-28T09:27:07.041Z,74.92
2022-09-28T09:28:07.180Z,74.94
2022-09-28T09:29:07.039Z,75.69
2022-09-28T09:30:07.063Z,76.07
2022-09-28T09:31:07.272Z,76.23
2022-09-28T09:32:07.044Z,76.13
2022-09-28T09:33:07.059Z,75.91
2022-09-28T09:34:07.043Z,76.06
2022-09-28T09:35:07.051Z,76.37
2022-09-28T09:36:07.344Z,75.65
2022-09-28T09:37:07.048Z,75.73
2022-09-28T09:38:07.088Z,76.61
2022-09-28T09:39:07.056Z,76.22
2022-09-28T09:40:07.056Z,75.79
2022-09-28T09:41:07.186Z,75.31
2022-09-28T09:42:07.125Z,75.25
2022-09-28T09:43:07.063Z,75.39
2022-09-28T09:44:07.060Z,75.87
2022-09-28T09:45:07.061Z,75.13
2022-09-28T09:46:07.113Z,75.48
2022-09-28T09:47:07.053Z,75.44
2022-09-28T09:48:07.051Z,76.31
2022-09-28T09:49:07.049Z,76.65
2022-09-28T09:50:09.028Z,75.84
2022-09-28T09:51:07.058Z,76.61
2022-09-28T09:52:07.051Z,76.83
2022-09-28T09:53:07.075Z,76.59
2022-09-28T09:54:07.056Z,76.4
2022-09-28T09:55:07.054Z,76.76
2022-09-28T09:56:07.049Z,76.53
2022-09-28T09:57:07.061Z,76.1
2022-09-28T09:58:07.072Z,76.73
2022-09-28T09:59:07.062Z,76.96
2022-09-28T10:00:07.055Z,76.01
2022-09-28T10:01:07.131Z,76.54
2022-09-28T10:02:11.538Z,76.1
2022-09-28T10:03:07.058Z,75.74
2022-09-28T10:04:07.051Z,75.34
2022-09-28T10:05:07.175Z,75.58
2022-09-28T10:06:07.058Z,75.37
2022-09-28T10:07:07.051Z,75.22
2022-09-28T10:08:07.077Z,75.68
2022-09-28T10:09:07.045Z,75.52
2022-09-28T10:10:07.138Z,75.36
2022-09-28T10:11:07.052Z,74.35
2022-09-28T10:12:07.048Z,73.77
2022-09-28T10:13:07.069Z,72.99
2022-09-28T10:14:07.052Z,73.37
2022-09-28T10:15:07.049Z,74.17
2022-09-28T10:16:07.049Z,75.28
2022-09-28T10:17:07.125Z,74.89
2022-09-28T10:18:07.060Z,73.77
2022-09-28T10:19:07.062Z,74.01
2022-09-28T10:20:07.075Z,73.42
2022-09-28T10:21:07.052Z,74.28
2022-09-28T10:22:07.055Z,74.21
2022-09-28T10:23:07.098Z,75.04
2022-09-28T10:24:07.151Z,75.43
2022-09-28T10:25:07.050Z,75.22
2022-09-28T10:26:07.053Z,74.9
2022-09-28T10:27:07.039Z,74.91
2022-09-28T10:28:07.048Z,74.86
2022-09-28T10:29:07.036Z,75.02
2022-09-28T10:30:07.126Z,74.84
2022-09-28T10:32:07.052Z,73.52
2022-09-28T10:33:07.049Z,72.55
2022-09-28T10:34:07.062Z,71.65
2022-09-28T10:35:07.037Z,71.71
2022-09-28T10:36:07.038Z,72.74
2022-09-28T10:37:07.034Z,72.86
2022-09-28T10:38:07.089Z,72.14
2022-09-28T10:39:07.039Z,72.54
2022-09-28T10:40:07.136Z,73.42
2022-09-28T10:41:07.458Z,73.2
2022-09-28T10:42:07.041Z,72.53
2022-09-28T10:43:07.096Z,70.76
2022-09-28T10:44:07.109Z,71.98
2022-09-28T10:45:07.047Z,71.98
2022-09-28T10:46:07.134Z,73.68
2022-09-28T10:47:07.047Z,72.49
2022-09-28T10:48:07.061Z,72.49
2022-09-28T10:49:07.049Z,73.06
2022-09-28T10:50:07.086Z,72.6
2022-09-28T10:51:07.048Z,71.41
2022-09-28T10:52:07.053Z,69.72
2022-09-28T10:53:07.074Z,71.66
2022-09-28T10:54:07.058Z,71.92
2022-09-28T10:55:07.045Z,70.25
2022-09-28T10:56:13.286Z,69.36
2022-09-28T10:57:13.433Z,69.91
2022-09-28T10:58:11.529Z,69.79
2022-09-28T10:59:11.566Z,69.63
2022-09-28T11:00:11.553Z,69.68
2022-09-28T11:01:11.609Z,69.09
2022-09-28T11:02:11.586Z,69.98
2022-09-28T11:03:11.519Z,69.69
2022-09-28T11:04:11.555Z,69.4
2022-09-28T11:05:11.524Z,68.79
2022-09-28T11:06:11.508Z,69.92
2022-09-28T11:07:12.480Z,70.17
2022-09-28T11:08:11.528Z,69.85
2022-09-28T11:09:11.544Z,69.31
2022-09-28T11:10:11.505Z,68.11
2022-09-28T11:11:11.499Z,67.94
2022-09-28T11:12:11.507Z,68.16
2022-09-28T11:13:11.513Z,68.65
2022-09-28T11:14:11.513Z,68.19
2022-09-28T11:15:11.507Z,67.86
2022-09-28T11:16:11.507Z,68.01
2022-09-28T11:17:11.500Z,67.69
2022-09-28T11:18:11.509Z,67.8
2022-09-28T11:19:11.500Z,67.96
2022-09-28T11:20:11.496Z,67.27
2022-09-28T11:21:13.095Z,67.99
2022-09-28T11:22:13.590Z,68.69
2022-09-28T11:23:11.539Z,69.13
2022-09-28T11:24:14.444Z,68.57
2022-09-28T11:25:11.501Z,69.14
2022-09-28T11:26:14.858Z,68.1
2022-09-28T11:27:11.507Z,69.59
2022-09-28T11:28:11.503Z,69.64
2022-09-28T11:29:11.555Z,69.21
2022-09-28T11:30:11.511Z,68.68
2022-09-28T11:31:11.553Z,68.29
2022-09-28T11:32:15.555Z,69.18
2022-09-28T11:33:11.507Z,68.72
2022-09-28T11:34:11.545Z,68.92
2022-09-28T11:35:11.493Z,67.89
2022-09-28T11:36:11.495Z,67.6
2022-09-28T11:37:11.495Z,67.92
2022-09-28T11:38:11.557Z,68.43
2022-09-28T11:39:11.489Z,68.94
2022-09-28T11:40:11.523Z,69.46
2022-09-28T11:41:11.509Z,69.08
2022-09-28T11:42:16.076Z,69.68
2022-09-28T11:43:13.349Z,69.6
2022-09-28T11:44:11.582Z,69.77
2022-09-28T11:45:11.498Z,71.1
2022-09-28T11:46:11.570Z,72.89
2022-09-28T11:47:11.496Z,73.14
2022-09-28T11:48:11.664Z,71.89
2022-09-28T11:49:11.488Z,71.76
2022-09-28T11:50:11.517Z,71.53
2022-09-28T11:51:11.489Z,69.72
2022-09-28T11:52:11.491Z,69.75
2022-09-28T11:53:11.512Z,69.54
2022-09-28T11:54:11.581Z,69.51
2022-09-28T11:55:11.490Z,69.07
2022-09-28T11:56:11.499Z,68.89
2022-09-28T11:57:11.487Z,69.29
2022-09-28T11:58:11.497Z,70.38
2022-09-28T11:59:11.492Z,68.88
2022-09-28T12:00:11.518Z,70.12
2022-09-28T12:01:14.336Z,70.04
2022-09-28T12:02:11.619Z,71.04
2022-09-28T12:03:11.572Z,70.93
2022-09-28T12:04:11.538Z,70.93
2022-09-28T12:05:11.505Z,70.38
2022-09-28T12:06:11.501Z,70.56
2022-09-28T12:07:11.501Z,70.73
2022-09-28T12:08:11.510Z,71.52
2022-09-28T12:09:11.587Z,71.48
2022-09-28T12:10:11.492Z,72.27
2022-09-28T12:11:11.501Z,72.26
2022-09-28T12:12:11.510Z,72.42
2022-09-28T12:13:11.507Z,71.75
2022-09-28T12:14:11.577Z,72.12
2022-09-28T12:15:11.502Z,72.53
2022-09-28T12:16:38.456Z,72.4
2022-09-28T12:17:11.557Z,72.53
2022-09-28T12:18:11.561Z,72.19
2022-09-28T12:19:11.602Z,72.33
2022-09-28T12:20:11.515Z,72.57
2022-09-28T12:21:11.499Z,70.78
2022-09-28T12:22:11.502Z,70.29
2022-09-28T12:23:11.517Z,70.33
2022-09-28T12:24:11.521Z,70.13
2022-09-28T12:25:11.498Z,70.6
2022-09-28T12:26:11.495Z,70.34
2022-09-28T12:27:11.505Z,69.87
2022-09-28T12:28:11.505Z,70.76
2022-09-28T12:29:11.556Z,70.25
2022-09-28T12:30:11.508Z,70.11
2022-09-28T12:31:11.525Z,69.24
2022-09-28T12:32:11.500Z,69.52
2022-09-28T12:33:11.541Z,69.56
2022-09-28T12:34:11.498Z,70.08
2022-09-28T12:35:11.503Z,70.29
2022-09-28T12:36:11.508Z,70.29
2022-09-28T12:37:11.506Z,69.91
2022-09-28T12:38:11.521Z,69.22
2022-09-28T12:39:27.096Z,68.17
2022-09-28T12:40:11.499Z,67.74
2022-09-28T12:41:11.491Z,67.21
2022-09-28T12:42:11.496Z,67.97
2022-09-28T12:43:11.502Z,67.97
2022-09-28T12:44:11.498Z,68.71
2022-09-28T12:45:11.495Z,67.98
2022-09-28T12:46:12.704Z,68.02
2022-09-28T12:47:11.538Z,66.99
2022-09-28T12:48:11.497Z,67.7
2022-09-28T12:50:39.018Z,67.98
2022-09-28T12:51:11.487Z,67.77
2022-09-28T12:52:11.493Z,67.14
2022-09-28T12:53:11.557Z,67.62
2022-09-28T12:54:11.555Z,67.4
2022-09-28T12:56:11.504Z,66.3
2022-09-28T12:57:11.480Z,66.63
2022-09-28T12:58:11.597Z,67.44